createdAt,value
2018-12-03T00:00:20.582Z,85.50
2018-12-03T00:02:50.141Z,85.50
2018-12-03T00:05:18.534Z,85.70
2018-12-03T00:07:46.930Z,85.50
2018-12-03T00:10:15.329Z,85.70
2018-12-03T00:12:43.725Z,85.80
2018-12-03T00:15:12.173Z,85.90
2018-12-03T00:17:40.544Z,85.80
2018-12-03T00:20:09.943Z,86.20
2018-12-03T00:22:38.322Z,86.10
2018-12-03T00:25:07.837Z,86.10
2018-12-03T00:27:36.401Z,86.10
2018-12-03T00:30:07.830Z,86.10
2018-12-03T00:32:36.187Z,86.00
2018-12-03T00:35:05.138Z,85.90
2018-12-03T00:37:33.525Z,85.70
2018-12-03T00:40:01.937Z,85.90
2018-12-03T00:42:30.284Z,85.70
2018-12-03T00:44:58.858Z,85.90
2018-12-03T00:47:27.213Z,86.10
2018-12-03T00:49:55.606Z,86.10
2018-12-03T00:52:23.965Z,85.90
2018-12-03T00:54:52.367Z,85.90
2018-12-03T00:57:20.737Z,86.00
2018-12-03T00:59:49.154Z,86.10
2018-12-03T01:02:22.999Z,86.10
2018-12-03T01:04:51.388Z,86.20
2018-12-03T01:07:19.794Z,86.10
2018-12-03T01:09:48.151Z,86.10
2018-12-03T01:12:16.550Z,86.10
2018-12-03T01:14:44.939Z,86.20
2018-12-03T01:17:13.353Z,86.40
2018-12-03T01:19:41.742Z,86.50
2018-12-03T01:22:10.161Z,86.60
2018-12-03T01:24:38.550Z,86.60
2018-12-03T01:27:06.993Z,86.60
2018-12-03T01:29:35.374Z,86.70
2018-12-03T01:32:03.783Z,86.80
2018-12-03T01:34:32.154Z,87.00
2018-12-03T01:37:00.636Z,87.00
2018-12-03T01:39:29.058Z,87.10
2018-12-03T01:41:57.445Z,87.20
2018-12-03T01:44:25.838Z,87.20
2018-12-03T01:46:54.378Z,87.30
2018-12-03T01:49:22.765Z,87.30
2018-12-03T01:51:51.133Z,87.20
2018-12-03T01:54:19.534Z,87.10
2018-12-03T01:56:48.069Z,87.10
2018-12-03T01:59:16.465Z,87.00
2018-12-03T02:01:44.929Z,86.90
2018-12-03T02:04:13.330Z,86.80
2018-12-03T02:06:41.725Z,86.80
2018-12-03T02:09:10.140Z,86.80
2018-12-03T02:11:38.557Z,86.80
2018-12-03T02:14:07.341Z,86.80
2018-12-03T02:16:35.733Z,86.80
2018-12-03T02:19:04.194Z,86.70
2018-12-03T02:21:32.587Z,86.70
2018-12-03T02:24:00.929Z,86.50
2018-12-03T02:26:29.296Z,86.60
2018-12-03T02:28:57.686Z,86.60
2018-12-03T02:31:26.093Z,86.50
2018-12-03T02:33:54.492Z,86.60
2018-12-03T02:36:22.906Z,86.80
2018-12-03T02:38:51.282Z,86.70
2018-12-03T02:41:19.697Z,86.80
2018-12-03T02:43:48.092Z,86.90
2018-12-03T02:46:16.480Z,86.90
2018-12-03T02:48:44.908Z,87.00
2018-12-03T02:51:13.825Z,86.90
2018-12-03T02:53:42.227Z,87.00
2018-12-03T02:56:10.599Z,87.10
2018-12-03T02:58:38.958Z,87.00
2018-12-03T03:01:07.372Z,87.10
2018-12-03T03:03:35.778Z,87.10
2018-12-03T03:06:04.187Z,87.10
2018-12-03T03:08:32.593Z,87.20
2018-12-03T03:11:00.987Z,87.20
2018-12-03T03:13:29.362Z,87.10
2018-12-03T03:15:57.773Z,87.20
2018-12-03T03:18:26.259Z,87.20
2018-12-03T03:20:54.709Z,87.20
2018-12-03T03:23:23.078Z,87.20
2018-12-03T03:25:51.456Z,87.30
2018-12-03T03:28:19.811Z,87.40
2018-12-03T03:30:48.174Z,87.40
2018-12-03T03:33:16.602Z,87.40
2018-12-03T03:35:44.948Z,87.40
2018-12-03T03:38:13.770Z,87.30
2018-12-03T03:40:42.128Z,87.20
2018-12-03T03:43:10.528Z,87.20
2018-12-03T03:45:38.885Z,87.20
2018-12-03T03:48:07.318Z,87.20
2018-12-03T03:50:35.834Z,87.10
2018-12-03T03:53:04.255Z,87.10
2018-12-03T03:55:32.630Z,87.10
2018-12-03T03:58:01.006Z,87.20
2018-12-03T04:00:29.372Z,87.20
2018-12-03T04:02:57.749Z,87.30
2018-12-03T04:05:27.110Z,87.20
2018-12-03T04:07:55.477Z,87.10
2018-12-03T04:10:23.828Z,87.20
2018-12-03T04:12:52.202Z,87.30
2018-12-03T04:15:20.602Z,87.30
2018-12-03T04:17:49.002Z,87.20
2018-12-03T04:20:19.586Z,87.30
2018-12-03T04:22:50.543Z,87.30
2018-12-03T04:25:18.962Z,87.10
2018-12-03T04:27:47.906Z,86.90
2018-12-03T04:30:17.723Z,86.80
2018-12-03T04:32:46.133Z,86.60
2018-12-03T04:35:14.746Z,86.20
2018-12-03T04:37:43.929Z,86.00
2018-12-03T04:40:13.449Z,85.70
2018-12-03T04:42:41.817Z,85.20
2018-12-03T04:45:13.294Z,85.00
2018-12-03T04:47:41.690Z,84.60
2018-12-03T04:50:17.323Z,84.30
2018-12-03T04:52:45.718Z,84.40
2018-12-03T04:55:15.594Z,84.10
2018-12-03T04:57:43.963Z,84.10
2018-12-03T05:00:13.648Z,83.90
2018-12-03T05:02:42.269Z,84.50
2018-12-03T05:05:11.007Z,84.90
2018-12-03T05:07:39.381Z,85.40
2018-12-03T05:10:12.894Z,85.50
2018-12-03T05:12:41.655Z,85.70
2018-12-03T05:15:11.329Z,85.80
2018-12-03T05:17:40.239Z,86.00
2018-12-03T05:20:10.113Z,86.20
2018-12-03T05:22:38.937Z,86.40
2018-12-03T05:25:08.942Z,86.60
2018-12-03T05:27:37.314Z,86.70
2018-12-03T05:30:10.036Z,86.80
2018-12-03T05:32:38.903Z,86.90
2018-12-03T05:35:09.262Z,86.90
2018-12-03T05:37:37.707Z,87.00
2018-12-03T05:40:10.125Z,87.10
2018-12-03T05:42:38.526Z,87.20
2018-12-03T05:45:08.140Z,87.20
2018-12-03T05:47:36.534Z,87.10
2018-12-03T05:50:07.519Z,87.10
2018-12-03T05:52:35.874Z,87.20
2018-12-03T05:55:05.435Z,87.30
2018-12-03T05:57:33.837Z,87.20
2018-12-03T06:00:02.228Z,87.30
2018-12-03T06:02:30.594Z,87.30
2018-12-03T06:04:59.646Z,87.20
2018-12-03T06:07:28.015Z,87.20
2018-12-03T06:09:56.399Z,87.20
2018-12-03T06:12:24.770Z,87.10
2018-12-03T06:14:53.161Z,87.20
2018-12-03T06:17:21.531Z,87.20
2018-12-03T06:19:49.925Z,87.00
2018-12-03T06:22:18.303Z,86.90
2018-12-03T06:24:47.681Z,86.80
2018-12-03T06:27:16.080Z,86.80
2018-12-03T06:29:44.473Z,86.70
2018-12-03T06:32:12.825Z,86.70
2018-12-03T06:34:41.211Z,86.70
2018-12-03T06:37:09.574Z,86.60
2018-12-03T06:39:37.937Z,86.40
2018-12-03T06:42:06.305Z,86.30
2018-12-03T06:44:34.666Z,86.30
2018-12-03T06:47:03.074Z,86.20
2018-12-03T06:49:31.452Z,86.20
2018-12-03T06:51:59.825Z,86.30
2018-12-03T06:54:28.187Z,86.20
2018-12-03T06:56:56.563Z,86.10
2018-12-03T06:59:24.926Z,86.00
2018-12-03T07:01:53.459Z,86.00
2018-12-03T07:04:21.932Z,86.10
2018-12-03T07:06:50.305Z,86.00
2018-12-03T07:09:18.666Z,85.80
2018-12-03T07:11:47.029Z,85.70
2018-12-03T07:14:15.397Z,85.40
2018-12-03T07:16:43.818Z,85.30
2018-12-03T07:19:12.194Z,85.10
2018-12-03T07:21:40.563Z,85.10
2018-12-03T07:24:09.004Z,85.40
2018-12-03T07:26:37.347Z,85.40
2018-12-03T07:29:06.307Z,85.40
2018-12-03T07:31:34.816Z,85.30
2018-12-03T07:34:03.427Z,85.50
2018-12-03T07:36:31.678Z,85.80
2018-12-03T07:39:00.084Z,85.80
2018-12-03T07:41:28.501Z,86.00
2018-12-03T07:43:56.902Z,86.10
2018-12-03T07:46:25.282Z,86.40
2018-12-03T07:48:53.687Z,86.40
2018-12-03T07:51:22.046Z,86.60
2018-12-03T07:53:50.439Z,86.80
2018-12-03T07:56:18.834Z,86.80
2018-12-03T07:58:47.203Z,86.80
2018-12-03T08:01:15.579Z,87.00
2018-12-03T08:03:43.994Z,87.10
2018-12-03T08:06:12.403Z,87.20
2018-12-03T08:08:40.785Z,87.30
2018-12-03T08:11:09.144Z,87.30
2018-12-03T08:13:37.554Z,87.40
2018-12-03T08:16:05.968Z,87.50
2018-12-03T08:18:34.349Z,87.50
2018-12-03T08:21:07.582Z,87.50
2018-12-03T08:23:55.045Z,87.50
2018-12-03T08:26:23.450Z,87.40
2018-12-03T08:28:51.921Z,87.20
2018-12-03T08:31:20.533Z,87.10
2018-12-03T08:33:48.928Z,87.00
2018-12-03T08:36:17.321Z,86.90
2018-12-03T08:38:45.728Z,86.90
2018-12-03T08:41:14.133Z,87.00
2018-12-03T08:43:42.538Z,87.10
2018-12-03T08:46:11.394Z,87.20
2018-12-03T08:48:40.901Z,86.60
2018-12-03T08:51:10.132Z,86.50
2018-12-03T08:53:38.546Z,86.70
2018-12-03T08:56:07.228Z,86.50
2018-12-03T08:58:35.610Z,85.90
2018-12-03T09:01:10.165Z,85.30
2018-12-03T09:03:38.855Z,84.80
2018-12-03T09:06:11.061Z,84.20
2018-12-03T09:08:39.594Z,83.40
2018-12-03T09:11:10.444Z,83.20
2018-12-03T09:13:38.851Z,83.00
2018-12-03T09:16:07.270Z,83.00
2018-12-03T09:18:37.952Z,83.20
2018-12-03T09:21:16.223Z,83.80
2018-12-03T09:23:45.801Z,83.10
2018-12-03T09:26:15.191Z,81.50
2018-12-03T09:28:43.622Z,81.00
2018-12-03T09:31:20.898Z,80.90
2018-12-03T09:33:53.806Z,80.40
2018-12-03T09:36:22.235Z,78.30
2018-12-03T09:38:57.437Z,77.70
2018-12-03T09:41:25.816Z,77.40
2018-12-03T09:43:54.187Z,78.00
2018-12-03T09:46:22.955Z,78.70
2018-12-03T09:48:58.017Z,79.60
2018-12-03T09:51:31.671Z,79.90
2018-12-03T09:54:00.690Z,79.80
2018-12-03T09:56:36.965Z,80.30
2018-12-03T09:59:12.426Z,81.10
2018-12-03T10:01:40.940Z,82.20
2018-12-03T10:04:12.287Z,82.70
2018-12-03T10:06:40.659Z,79.60
2018-12-03T10:09:11.086Z,79.20
2018-12-03T10:11:39.489Z,79.70
2018-12-03T10:14:08.044Z,80.60
2018-12-03T10:16:40.679Z,80.10
2018-12-03T10:19:08.753Z,79.20
2018-12-03T10:21:37.282Z,78.90
2018-12-03T10:24:11.317Z,79.50
2018-12-03T10:26:39.878Z,78.60
2018-12-03T10:29:12.989Z,79.20
2018-12-03T10:31:41.375Z,79.10
2018-12-03T10:34:12.610Z,79.30
2018-12-03T10:36:50.639Z,79.70
2018-12-03T10:39:24.166Z,79.40
2018-12-03T10:41:57.667Z,81.10
2018-12-03T10:44:26.087Z,81.70
2018-12-03T10:46:54.475Z,81.10
2018-12-03T10:49:23.148Z,81.00
2018-12-03T10:52:17.782Z,80.70
2018-12-03T10:54:45.253Z,80.70
2018-12-03T10:57:13.525Z,81.30
2018-12-03T10:59:44.927Z,80.60
2018-12-03T11:02:14.490Z,79.30
2018-12-03T11:04:43.561Z,78.30
2018-12-03T11:07:11.378Z,77.90
2018-12-03T11:09:39.035Z,78.60
2018-12-03T11:12:06.582Z,77.80
2018-12-03T11:14:34.190Z,77.90
2018-12-03T11:17:01.802Z,75.80
2018-12-03T11:19:29.315Z,76.70
2018-12-03T11:21:56.867Z,75.60
2018-12-03T11:24:24.348Z,76.50
2018-12-03T11:26:51.890Z,74.20
2018-12-03T11:29:19.731Z,74.00
2018-12-03T11:31:47.198Z,74.20
2018-12-03T11:34:17.419Z,73.80
2018-12-03T11:36:44.889Z,73.00
2018-12-03T11:39:12.362Z,71.80
2018-12-03T11:41:39.901Z,73.00
2018-12-03T11:44:07.457Z,71.90
2018-12-03T11:46:34.924Z,72.00
2018-12-03T11:49:02.395Z,71.70
2018-12-03T11:51:29.934Z,72.40
2018-12-03T11:53:57.406Z,73.20
2018-12-03T11:56:24.862Z,73.20
2018-12-03T11:58:52.338Z,74.60
2018-12-03T12:01:19.777Z,73.10
2018-12-03T12:03:47.255Z,73.50
2018-12-03T12:06:14.698Z,74.50
2018-12-03T12:08:42.238Z,73.30
2018-12-03T12:11:09.679Z,72.10
2018-12-03T12:13:37.167Z,71.30
2018-12-03T12:16:04.869Z,71.20
2018-12-03T12:18:32.336Z,72.70
2018-12-03T12:20:59.814Z,73.00
2018-12-03T12:23:27.247Z,73.40
2018-12-03T12:25:54.808Z,73.50
2018-12-03T12:28:22.259Z,73.10
2018-12-03T12:30:49.726Z,73.20
2018-12-03T12:33:18.207Z,72.20
2018-12-03T12:35:45.855Z,72.30
2018-12-03T12:38:13.315Z,74.00
2018-12-03T12:40:40.798Z,73.10
2018-12-03T12:43:08.252Z,71.60
2018-12-03T12:45:35.744Z,70.00
2018-12-03T12:48:03.363Z,69.90
2018-12-03T12:50:30.850Z,69.00
2018-12-03T12:52:58.313Z,66.30
2018-12-03T12:55:25.863Z,66.10
2018-12-03T12:57:53.323Z,67.30
2018-12-03T13:00:20.836Z,67.00
2018-12-03T13:02:48.277Z,65.50
2018-12-03T13:05:15.882Z,65.90
2018-12-03T13:07:43.430Z,66.70
2018-12-03T13:10:10.962Z,66.90
2018-12-03T13:12:38.564Z,65.50
2018-12-03T13:15:07.550Z,64.50
2018-12-03T13:17:35.027Z,63.00
2018-12-03T13:20:02.568Z,64.20
2018-12-03T13:22:33.370Z,65.00
2018-12-03T13:25:00.825Z,64.50
2018-12-03T13:27:28.306Z,63.20
2018-12-03T13:29:55.762Z,63.60
2018-12-03T13:32:23.230Z,64.30
2018-12-03T13:34:50.706Z,63.20
2018-12-03T13:37:18.173Z,65.00
2018-12-03T13:39:45.647Z,64.70
2018-12-03T13:42:13.113Z,64.80
2018-12-03T13:44:40.566Z,65.20
2018-12-03T13:47:08.113Z,65.70
2018-12-03T13:49:35.596Z,67.20
2018-12-03T13:52:03.184Z,69.00
2018-12-03T13:54:30.670Z,71.60
2018-12-03T13:56:58.117Z,72.50
2018-12-03T13:59:25.608Z,73.20
2018-12-03T14:01:53.146Z,74.40
2018-12-03T14:04:22.673Z,76.60
2018-12-03T14:06:50.292Z,77.80
2018-12-03T14:09:17.764Z,78.40
2018-12-03T14:11:45.227Z,78.40
2018-12-03T14:14:13.038Z,77.20
2018-12-03T14:16:42.755Z,78.60
2018-12-03T14:19:10.554Z,79.10
2018-12-03T14:21:38.126Z,79.00
2018-12-03T14:24:05.930Z,79.20
2018-12-03T14:26:33.433Z,80.30
2018-12-03T14:29:00.969Z,80.70
2018-12-03T14:31:28.490Z,81.00
2018-12-03T14:33:55.974Z,81.20
2018-12-03T14:36:23.443Z,81.50
2018-12-03T14:38:50.896Z,82.20
2018-12-03T14:41:18.457Z,82.50
2018-12-03T14:43:45.916Z,82.50
2018-12-03T14:46:13.389Z,82.60
2018-12-03T14:48:40.846Z,81.70
2018-12-03T14:51:08.301Z,81.20
2018-12-03T14:53:35.769Z,81.60
2018-12-03T14:56:03.237Z,81.90
2018-12-03T14:58:30.691Z,82.50
2018-12-03T15:00:58.193Z,82.80
2018-12-03T15:03:26.469Z,81.40
2018-12-03T15:05:53.948Z,81.00
2018-12-03T15:08:21.420Z,81.90
2018-12-03T15:10:48.882Z,82.10
2018-12-03T15:13:16.358Z,81.70
2018-12-03T15:15:43.792Z,80.20
2018-12-03T15:18:12.234Z,80.20
2018-12-03T15:20:39.687Z,79.60
2018-12-03T15:23:07.179Z,79.40
2018-12-03T15:25:34.637Z,80.30
2018-12-03T15:28:02.102Z,81.20
2018-12-03T15:30:29.567Z,82.00
2018-12-03T15:32:57.034Z,82.60
2018-12-03T15:35:24.518Z,83.30
2018-12-03T15:37:51.981Z,83.80
2018-12-03T15:40:19.456Z,83.90
2018-12-03T15:42:46.900Z,83.70
2018-12-03T15:45:14.447Z,83.50
2018-12-03T15:47:41.913Z,83.10
2018-12-03T15:50:09.442Z,83.30
2018-12-03T15:52:36.911Z,83.10
2018-12-03T15:55:04.733Z,82.80
2018-12-03T15:57:32.182Z,83.30
2018-12-03T15:59:59.674Z,83.60
2018-12-03T16:02:27.149Z,84.00
2018-12-03T16:04:54.706Z,84.20
2018-12-03T16:07:22.154Z,84.50
2018-12-03T16:09:49.627Z,84.70
2018-12-03T16:12:17.074Z,84.60
2018-12-03T16:14:44.616Z,84.70
2018-12-03T16:17:12.070Z,84.40
2018-12-03T16:19:39.542Z,84.00
2018-12-03T16:22:07.004Z,83.90
2018-12-03T16:24:34.496Z,84.00
2018-12-03T16:27:02.059Z,83.90
2018-12-03T16:29:29.538Z,84.10
2018-12-03T16:31:57.021Z,84.70
2018-12-03T16:34:24.471Z,84.90
2018-12-03T16:36:51.928Z,85.10
2018-12-03T16:39:19.446Z,85.20
2018-12-03T16:41:46.910Z,85.10
2018-12-03T16:44:14.379Z,85.10
2018-12-03T16:46:41.853Z,84.60
2018-12-03T16:49:09.329Z,83.70
2018-12-03T16:51:36.815Z,83.50
2018-12-03T16:54:04.346Z,83.40
2018-12-03T16:56:31.840Z,83.30
2018-12-03T16:58:59.373Z,83.80
2018-12-03T17:01:26.837Z,83.40
2018-12-03T17:03:54.294Z,83.90
2018-12-03T17:06:21.820Z,84.50
2018-12-03T17:08:49.295Z,84.60
2018-12-03T17:11:16.738Z,84.90
2018-12-03T17:13:44.231Z,85.20
2018-12-03T17:16:11.761Z,85.30
2018-12-03T17:18:39.241Z,85.60
2018-12-03T17:21:06.706Z,85.70
2018-12-03T17:23:34.460Z,85.80
2018-12-03T17:26:01.917Z,85.80
2018-12-03T17:28:29.586Z,85.40
2018-12-03T17:30:57.035Z,85.00
2018-12-03T17:33:24.508Z,85.20
2018-12-03T17:35:52.083Z,85.60
2018-12-03T17:38:19.557Z,85.90
2018-12-03T17:41:00.223Z,86.00
2018-12-03T17:43:27.686Z,86.00
2018-12-03T17:45:55.152Z,86.20
2018-12-03T17:48:22.620Z,86.20
2018-12-03T17:50:50.109Z,86.30
2018-12-03T17:53:17.566Z,86.50
2018-12-03T17:55:45.124Z,86.40
2018-12-03T17:58:12.602Z,86.20
2018-12-03T18:00:40.063Z,86.10
2018-12-03T18:03:07.527Z,86.20
2018-12-03T18:05:35.007Z,86.30
2018-12-03T18:08:02.442Z,86.40
2018-12-03T18:10:29.927Z,86.50
2018-12-03T18:12:57.381Z,86.60
2018-12-03T18:15:24.852Z,86.70
2018-12-03T18:17:52.417Z,86.80
2018-12-03T18:20:19.887Z,87.50
2018-12-03T18:22:47.344Z,87.50
2018-12-03T18:25:14.823Z,87.50
2018-12-03T18:27:43.141Z,87.60
2018-12-03T18:44:34.122Z,87.80
2018-12-03T18:47:01.546Z,87.80
2018-12-03T18:49:29.018Z,87.80
2018-12-03T18:51:56.475Z,87.90
2018-12-03T18:54:24.806Z,87.80
2018-12-03T18:56:52.421Z,87.30
2018-12-03T18:59:19.895Z,87.20
2018-12-03T19:01:47.371Z,87.10
2018-12-03T19:04:15.725Z,86.90
2018-12-03T19:06:43.189Z,86.50
2018-12-03T19:09:10.672Z,86.20
2018-12-03T19:11:38.186Z,86.00
2018-12-03T19:14:05.672Z,85.70
2018-12-03T19:16:33.187Z,85.30
2018-12-03T19:19:00.662Z,84.90
2018-12-03T19:21:28.199Z,84.80
2018-12-03T19:23:55.679Z,84.50
2018-12-03T19:26:23.121Z,84.20
2018-12-03T19:28:50.617Z,84.00
2018-12-03T19:31:18.201Z,83.40
2018-12-03T19:33:45.683Z,82.50
2018-12-03T19:36:13.226Z,80.60
2018-12-03T19:38:40.712Z,79.30
2018-12-03T19:41:08.171Z,79.70
2018-12-03T19:43:35.632Z,72.20
2018-12-03T19:46:03.109Z,69.40
2018-12-03T19:48:30.579Z,68.20
2018-12-03T19:50:58.054Z,66.20
2018-12-03T19:53:25.527Z,66.70
2018-12-03T19:55:53.221Z,67.60
2018-12-03T19:58:20.764Z,68.30
2018-12-03T20:00:48.308Z,67.10
2018-12-03T20:03:15.844Z,67.80
2018-12-03T20:05:43.337Z,71.20
2018-12-03T20:08:10.782Z,73.30
2018-12-03T20:10:38.288Z,70.10
2018-12-03T20:13:05.736Z,69.50
2018-12-03T20:15:33.196Z,66.20
2018-12-03T20:18:00.681Z,66.60
2018-12-03T20:20:28.208Z,65.80
2018-12-03T20:22:55.824Z,67.10
2018-12-03T20:25:23.610Z,66.60
2018-12-03T20:27:51.145Z,67.70
2018-12-03T20:30:22.559Z,67.20
2018-12-03T20:32:50.196Z,68.90
2018-12-03T20:35:17.668Z,70.20
2018-12-03T20:37:45.157Z,71.80
2018-12-03T20:40:15.270Z,73.70
2018-12-03T20:42:42.918Z,76.20
2018-12-03T20:45:15.869Z,77.70
2018-12-03T20:47:43.599Z,79.70
2018-12-03T20:50:13.216Z,80.80
2018-12-03T20:52:40.698Z,81.80
2018-12-03T20:55:10.004Z,82.40
2018-12-03T20:57:37.455Z,82.70
2018-12-03T21:00:08.224Z,83.30
2018-12-03T21:02:35.794Z,82.50
2018-12-03T21:05:03.734Z,78.20
2018-12-03T21:07:31.214Z,78.50
2018-12-03T21:09:58.685Z,80.10
2018-12-03T21:12:26.233Z,80.80
2018-12-03T21:14:53.684Z,82.20
2018-12-03T21:17:21.216Z,83.20
2018-12-03T21:19:50.708Z,83.70
2018-12-03T21:22:18.166Z,82.00
2018-12-03T21:24:45.633Z,80.70
2018-12-03T21:27:13.141Z,79.20
2018-12-03T21:29:40.610Z,79.70
2018-12-03T21:32:08.049Z,79.70
2018-12-03T21:34:35.546Z,79.80
2018-12-03T21:37:02.992Z,76.20
2018-12-03T21:39:30.461Z,76.20
2018-12-03T21:41:57.920Z,75.90
2018-12-03T21:44:25.382Z,77.20
2018-12-03T21:46:52.846Z,77.10
2018-12-03T21:49:20.298Z,77.40
2018-12-03T21:51:48.866Z,77.80
2018-12-03T21:54:16.302Z,78.30
2018-12-03T21:56:43.752Z,77.00
2018-12-03T21:59:11.201Z,78.40
2018-12-03T22:01:38.666Z,78.50
2018-12-03T22:04:06.115Z,78.90
2018-12-03T22:06:33.601Z,78.50
2018-12-03T22:09:01.035Z,78.20
2018-12-03T22:11:28.490Z,76.40
2018-12-03T22:13:55.954Z,76.30
2018-12-03T22:16:23.415Z,77.00
2018-12-03T22:18:50.895Z,77.70
2018-12-03T22:21:18.362Z,78.10
2018-12-03T22:23:45.894Z,78.60
2018-12-03T22:26:13.335Z,78.40
2018-12-03T22:28:40.796Z,79.50
2018-12-03T22:31:08.243Z,80.50
2018-12-03T22:33:35.717Z,80.70
2018-12-03T22:36:03.224Z,80.50
2018-12-03T22:38:30.711Z,80.30
2018-12-03T22:40:58.159Z,80.20
2018-12-03T22:43:25.624Z,80.30
2018-12-03T22:45:53.077Z,80.30
2018-12-03T22:48:20.571Z,80.70
2018-12-03T22:50:47.993Z,79.90
2018-12-03T22:53:15.442Z,80.10
2018-12-03T22:55:42.905Z,80.40
2018-12-03T22:58:10.356Z,79.60
2018-12-03T23:00:38.272Z,79.70
2018-12-03T23:03:05.791Z,79.40
2018-12-03T23:05:33.410Z,79.40
2018-12-03T23:08:00.850Z,78.70
2018-12-03T23:10:28.654Z,78.50
2018-12-03T23:12:56.094Z,79.50
2018-12-03T23:15:23.561Z,80.10
2018-12-03T23:17:51.010Z,80.20
2018-12-03T23:20:18.502Z,79.50
2018-12-03T23:22:45.934Z,79.30
2018-12-03T23:25:13.473Z,78.60
2018-12-03T23:27:41.025Z,77.90
2018-12-03T23:30:08.565Z,77.80
2018-12-03T23:32:35.994Z,78.40
2018-12-03T23:35:04.650Z,79.20
2018-12-03T23:37:32.096Z,79.70
2018-12-03T23:39:59.552Z,79.80
2018-12-03T23:42:27.010Z,79.90
2018-12-03T23:44:54.463Z,80.30
2018-12-03T23:47:21.926Z,80.10
2018-12-03T23:49:49.370Z,79.50
2018-12-03T23:52:16.843Z,76.60
2018-12-03T23:54:44.295Z,74.40
2018-12-03T23:57:11.746Z,74.80
2018-12-03T23:59:39.197Z,74.10
